createdAt,value
2017-04-13T00:00:20.351Z,94
2017-04-13T00:01:21.119Z,95
2017-04-13T00:02:21.888Z,95
2017-04-13T00:03:22.653Z,94
2017-04-13T00:04:23.677Z,95
2017-04-13T00:05:24.443Z,95
2017-04-13T00:06:25.209Z,95
2017-04-13T00:07:25.980Z,94
2017-04-13T00:08:26.747Z,93
2017-04-13T00:09:27.766Z,93
2017-04-13T00:10:28.533Z,93
2017-04-13T00:11:29.303Z,93
2017-04-13T00:12:30.071Z,93
2017-04-13T00:13:30.841Z,93
2017-04-13T00:14:31.860Z,93
2017-04-13T00:15:32.623Z,93
2017-04-13T00:16:33.393Z,94
2017-04-13T00:17:34.160Z,93
2017-04-13T00:18:34.932Z,93
2017-04-13T00:19:35.952Z,93
2017-04-13T00:20:36.724Z,93
2017-04-13T00:21:37.491Z,93
2017-04-13T00:22:38.262Z,94
2017-04-13T00:23:39.028Z,93
2017-04-13T00:24:40.049Z,93
2017-04-13T00:25:40.815Z,93
2017-04-13T00:26:41.587Z,93
2017-04-13T00:27:42.353Z,93
2017-04-13T00:28:43.120Z,94
2017-04-13T00:29:44.139Z,94
2017-04-13T00:30:44.909Z,93
2017-04-13T00:31:45.680Z,93
2017-04-13T00:32:46.444Z,93
2017-04-13T00:33:47.212Z,93
2017-04-13T00:34:48.233Z,94
2017-04-13T00:35:49.002Z,94
2017-04-13T00:36:49.766Z,93
2017-04-13T00:37:50.538Z,94
2017-04-13T00:38:51.310Z,94
2017-04-13T00:39:52.326Z,93
2017-04-13T00:40:53.094Z,93
2017-04-13T00:41:53.861Z,93
2017-04-13T00:42:54.634Z,93
2017-04-13T00:43:55.398Z,93
2017-04-13T00:44:56.415Z,93
2017-04-13T00:45:57.187Z,93
2017-04-13T00:46:57.956Z,93
2017-04-13T00:47:58.720Z,93
2017-04-13T00:48:59.493Z,93
2017-04-13T00:50:00.507Z,93
2017-04-13T00:51:01.279Z,93
2017-04-13T00:52:02.044Z,93
2017-04-13T00:53:02.814Z,93
2017-04-13T00:54:03.581Z,92
2017-04-13T00:55:04.565Z,92
2017-04-13T00:56:05.333Z,93
2017-04-13T00:57:06.100Z,93
2017-04-13T00:58:06.866Z,93
2017-04-13T00:59:07.635Z,93
2017-04-13T01:00:08.650Z,93
2017-04-13T01:01:09.418Z,94
2017-04-13T01:02:10.184Z,93
2017-04-13T01:03:10.962Z,94
2017-04-13T01:04:11.722Z,94
2017-04-13T01:05:12.744Z,93
2017-04-13T01:06:13.512Z,93
2017-04-13T01:07:14.282Z,94
2017-04-13T01:08:15.047Z,93
2017-04-13T01:09:15.814Z,93
2017-04-13T01:10:16.834Z,94
2017-04-13T01:11:17.600Z,93
2017-04-13T01:12:18.366Z,93
2017-04-13T01:13:19.132Z,94
2017-04-13T01:14:19.902Z,94
2017-04-13T01:15:20.919Z,94
2017-04-13T01:16:21.685Z,94
2017-04-13T01:17:22.452Z,94
2017-04-13T01:18:23.219Z,94
2017-04-13T01:19:23.987Z,94
2017-04-13T01:20:25.004Z,95
2017-04-13T01:21:25.777Z,94
2017-04-13T01:22:26.542Z,95
2017-04-13T01:23:27.308Z,95
2017-04-13T01:24:28.079Z,94
2017-04-13T01:25:29.146Z,95
2017-04-13T01:26:29.911Z,95
2017-04-13T01:27:30.681Z,94
2017-04-13T01:28:31.448Z,95
2017-04-13T01:29:32.219Z,94
2017-04-13T01:30:33.237Z,95
2017-04-13T01:31:34.004Z,95
2017-04-13T01:32:34.772Z,94
2017-04-13T01:33:35.538Z,95
2017-04-13T01:34:36.308Z,94
2017-04-13T01:35:37.514Z,95
2017-04-13T01:36:38.278Z,95
2017-04-13T01:37:39.048Z,94
2017-04-13T01:38:39.815Z,94
2017-04-13T01:39:40.581Z,95
2017-04-13T01:40:41.600Z,95
2017-04-13T01:41:42.371Z,95
2017-04-13T01:42:43.141Z,95
2017-04-13T01:43:43.906Z,95
2017-04-13T01:44:44.675Z,95
2017-04-13T01:45:45.693Z,95
2017-04-13T01:46:46.464Z,96
2017-04-13T01:47:47.231Z,95
2017-04-13T01:48:47.998Z,96
2017-04-13T01:49:48.768Z,95
2017-04-13T01:50:49.786Z,95
2017-04-13T01:51:50.552Z,95
2017-04-13T01:52:51.322Z,95
2017-04-13T01:53:52.097Z,95
2017-04-13T01:54:52.857Z,95
2017-04-13T01:55:53.878Z,95
2017-04-13T01:56:54.643Z,95
2017-04-13T01:57:55.414Z,95
2017-04-13T01:58:56.223Z,94
2017-04-13T01:59:56.953Z,95
2017-04-13T02:00:57.971Z,95
2017-04-13T02:01:58.736Z,96
2017-04-13T02:02:59.503Z,95
2017-04-13T02:04:00.278Z,95
2017-04-13T02:05:01.045Z,95
2017-04-13T02:06:02.066Z,95
2017-04-13T02:07:02.833Z,95
2017-04-13T02:08:03.599Z,95
2017-04-13T02:09:04.366Z,95
2017-04-13T02:10:05.135Z,95
2017-04-13T02:11:06.155Z,95
2017-04-13T02:12:06.919Z,95
2017-04-13T02:13:07.685Z,95
2017-04-13T02:14:08.459Z,95
2017-04-13T02:15:09.222Z,95
2017-04-13T02:16:10.244Z,95
2017-04-13T02:17:11.007Z,95
2017-04-13T02:18:11.782Z,95
2017-04-13T02:19:12.543Z,95
2017-04-13T02:20:13.310Z,96
2017-04-13T02:21:14.332Z,95
2017-04-13T02:22:15.101Z,95
2017-04-13T02:23:15.869Z,95
2017-04-13T02:24:16.636Z,95
2017-04-13T02:25:17.406Z,95
2017-04-13T02:26:18.426Z,95
2017-04-13T02:27:19.190Z,95
2017-04-13T02:28:19.959Z,95
2017-04-13T02:29:20.726Z,96
2017-04-13T02:30:21.495Z,95
2017-04-13T02:31:22.514Z,95
2017-04-13T02:32:23.284Z,95
2017-04-13T02:33:24.050Z,95
2017-04-13T02:34:24.820Z,95
2017-04-13T02:35:25.589Z,95
2017-04-13T02:36:26.606Z,95
2017-04-13T02:37:27.373Z,95
2017-04-13T02:38:28.141Z,96
2017-04-13T02:39:28.908Z,95
2017-04-13T02:40:29.681Z,95
2017-04-13T02:41:30.698Z,95
2017-04-13T02:42:31.465Z,95
2017-04-13T02:43:32.232Z,95
2017-04-13T02:44:33.003Z,94
2017-04-13T02:45:33.770Z,95
2017-04-13T02:46:34.786Z,95
2017-04-13T02:47:35.557Z,95
2017-04-13T02:48:36.327Z,95
2017-04-13T02:49:37.093Z,94
2017-04-13T02:50:37.864Z,94
2017-04-13T02:51:38.881Z,94
2017-04-13T02:52:39.650Z,94
2017-04-13T02:53:40.420Z,94
2017-04-13T02:54:41.190Z,94
2017-04-13T02:55:41.958Z,94
2017-04-13T02:56:42.973Z,94
2017-04-13T02:57:43.743Z,95
2017-04-13T02:58:44.512Z,93
2017-04-13T02:59:45.286Z,93
2017-04-13T03:00:46.050Z,94
2017-04-13T03:01:47.067Z,94
2017-04-13T03:02:47.834Z,94
2017-04-13T03:03:48.602Z,94
2017-04-13T03:04:49.369Z,94
2017-04-13T03:05:50.136Z,94
2017-04-13T03:06:51.150Z,94
2017-04-13T03:07:51.918Z,94
2017-04-13T03:08:52.689Z,94
2017-04-13T03:09:53.454Z,93
2017-04-13T03:10:54.223Z,94
2017-04-13T03:11:55.244Z,94
2017-04-13T03:12:56.012Z,94
2017-04-13T03:13:56.781Z,94
2017-04-13T03:14:57.546Z,94
2017-04-13T03:15:58.313Z,94
2017-04-13T03:16:59.330Z,94
2017-04-13T03:18:00.098Z,94
2017-04-13T03:19:00.867Z,94
2017-04-13T03:20:01.633Z,94
2017-04-13T03:21:02.406Z,93
2017-04-13T03:22:03.424Z,94
2017-04-13T03:23:04.189Z,94
2017-04-13T03:24:05.040Z,94
2017-04-13T03:25:06.025Z,94
2017-04-13T03:26:06.795Z,94
2017-04-13T03:27:07.821Z,93
2017-04-13T03:28:08.573Z,93
2017-04-13T03:29:09.345Z,94
2017-04-13T03:30:10.110Z,93
2017-04-13T03:31:10.878Z,94
2017-04-13T03:32:11.898Z,94
2017-04-13T03:33:12.667Z,94
2017-04-13T03:34:13.621Z,94
2017-04-13T03:35:14.388Z,94
2017-04-13T03:36:15.155Z,94
2017-04-13T03:37:16.177Z,93
2017-04-13T03:38:16.942Z,93
2017-04-13T03:39:17.710Z,93
2017-04-13T03:40:18.480Z,93
2017-04-13T03:41:19.246Z,94
2017-04-13T03:42:20.265Z,94
2017-04-13T03:43:21.031Z,94
2017-04-13T03:44:21.803Z,94
2017-04-13T03:45:22.572Z,93
2017-04-13T03:46:23.525Z,94
2017-04-13T03:47:24.544Z,94
2017-04-13T03:48:25.308Z,94
2017-04-13T03:49:26.076Z,94
2017-04-13T03:50:26.843Z,94
2017-04-13T03:51:27.611Z,94
2017-04-13T03:52:28.630Z,94
2017-04-13T03:53:29.398Z,94
2017-04-13T03:54:30.168Z,94
2017-04-13T03:55:30.935Z,94
2017-04-13T03:56:31.702Z,94
2017-04-13T03:57:32.719Z,94
2017-04-13T03:58:33.485Z,94
2017-04-13T03:59:34.254Z,94
2017-04-13T04:00:35.019Z,94
2017-04-13T04:01:35.785Z,95
2017-04-13T04:02:36.802Z,94
2017-04-13T04:03:37.573Z,94
2017-04-13T04:04:38.344Z,95
2017-04-13T04:05:39.112Z,94
2017-04-13T04:06:39.881Z,95
2017-04-13T04:07:40.900Z,95
2017-04-13T04:08:41.664Z,95
2017-04-13T04:09:42.432Z,94
2017-04-13T04:10:43.215Z,95
2017-04-13T04:11:43.981Z,95
2017-04-13T04:12:45.000Z,94
2017-04-13T04:13:45.770Z,95
2017-04-13T04:14:46.538Z,94
2017-04-13T04:15:47.305Z,94
2017-04-13T04:16:48.072Z,94
2017-04-13T04:17:49.093Z,94
2017-04-13T04:18:49.861Z,95
2017-04-13T04:19:50.631Z,94
2017-04-13T04:20:51.400Z,95
2017-04-13T04:21:52.171Z,95
2017-04-13T04:22:53.192Z,95
2017-04-13T04:23:53.958Z,94
2017-04-13T04:24:54.725Z,95
2017-04-13T04:25:55.497Z,95
2017-04-13T04:26:56.263Z,95
2017-04-13T04:27:57.283Z,94
2017-04-13T04:28:58.052Z,95
2017-04-13T04:29:58.825Z,95
2017-04-13T04:30:59.595Z,94
2017-04-13T04:32:00.358Z,95
2017-04-13T04:33:01.381Z,95
2017-04-13T04:34:02.152Z,95
2017-04-13T04:35:02.922Z,95
2017-04-13T04:36:03.694Z,95
2017-04-13T04:37:04.460Z,95
2017-04-13T04:38:05.484Z,95
2017-04-13T04:39:06.254Z,95
2017-04-13T04:40:07.025Z,94
2017-04-13T04:41:07.796Z,95
2017-04-13T04:42:08.566Z,95
2017-04-13T04:43:09.769Z,95
2017-04-13T04:44:10.539Z,94
2017-04-13T04:45:11.311Z,95
2017-04-13T04:46:12.081Z,95
2017-04-13T04:47:12.852Z,95
2017-04-13T04:48:13.872Z,95
2017-04-13T04:49:14.647Z,95
2017-04-13T04:50:15.414Z,95
2017-04-13T04:51:16.182Z,95
2017-04-13T04:52:16.950Z,95
2017-04-13T04:53:17.971Z,95
2017-04-13T04:54:18.742Z,95
2017-04-13T04:55:19.531Z,95
2017-04-13T04:56:20.306Z,94
2017-04-13T04:57:21.073Z,95
2017-04-13T04:58:22.097Z,95
2017-04-13T04:59:22.871Z,94
2017-04-13T05:00:23.642Z,95
2017-04-13T05:01:24.415Z,95
2017-04-13T05:02:25.186Z,95
2017-04-13T05:03:26.209Z,95
2017-04-13T05:04:26.979Z,95
2017-04-13T05:05:27.751Z,95
2017-04-13T05:06:28.521Z,95
2017-04-13T05:07:29.297Z,95
2017-04-13T05:08:30.319Z,95
2017-04-13T05:09:31.088Z,95
2017-04-13T05:10:31.861Z,95
2017-04-13T05:11:32.630Z,95
2017-04-13T05:12:33.464Z,95
2017-04-13T05:13:34.492Z,95
2017-04-13T05:14:35.262Z,94
2017-04-13T05:15:36.048Z,94
2017-04-13T05:16:36.832Z,95
2017-04-13T05:17:37.604Z,94
2017-04-13T05:18:38.626Z,93
2017-04-13T05:19:39.397Z,94
2017-04-13T05:20:40.266Z,93
2017-04-13T05:21:41.036Z,93
2017-04-13T05:22:41.810Z,93
2017-04-13T05:23:42.834Z,94
2017-04-13T05:24:43.609Z,93
2017-04-13T05:25:44.412Z,93
2017-04-13T05:26:45.199Z,93
2017-04-13T05:27:45.972Z,93
2017-04-13T05:28:47.059Z,93
2017-04-13T05:29:47.906Z,93
2017-04-13T05:30:48.701Z,93
2017-04-13T05:31:49.470Z,93
2017-04-13T05:32:50.241Z,94
2017-04-13T05:34:55.651Z,93
2017-04-13T05:35:56.504Z,93
2017-04-13T05:36:57.273Z,93
2017-04-13T05:37:58.062Z,93
2017-04-13T05:38:59.154Z,93
2017-04-13T05:39:59.992Z,92
2017-04-13T05:41:00.842Z,93
2017-04-13T05:42:01.611Z,92
2017-04-13T05:43:02.434Z,93
2017-04-13T05:44:04.366Z,92
2017-04-13T05:45:05.136Z,92
2017-04-13T05:46:05.909Z,92
2017-04-13T05:47:06.679Z,92
2017-04-13T05:48:07.451Z,92
2017-04-13T05:49:08.513Z,91
2017-04-13T05:50:09.275Z,91
2017-04-13T05:51:10.046Z,92
2017-04-13T05:52:10.897Z,91
2017-04-13T05:53:11.692Z,91
2017-04-13T05:54:12.714Z,92
2017-04-13T05:55:13.636Z,91
2017-04-13T05:56:15.385Z,91
2017-04-13T05:57:16.156Z,91
2017-04-13T05:58:16.926Z,91
2017-04-13T05:59:17.950Z,91
2017-04-13T06:00:18.723Z,91
2017-04-13T06:01:19.493Z,90
2017-04-13T06:02:20.267Z,90
2017-04-13T06:03:21.155Z,91
2017-04-13T06:04:22.203Z,90
2017-04-13T06:05:23.027Z,91
2017-04-13T06:06:23.787Z,91
2017-04-13T06:07:24.560Z,91
2017-04-13T06:08:25.401Z,90
2017-04-13T06:09:27.343Z,90
2017-04-13T06:10:28.116Z,91
2017-04-13T06:11:28.892Z,90
2017-04-13T06:12:29.681Z,90
2017-04-13T06:13:30.470Z,89
2017-04-13T06:14:31.488Z,90
2017-04-13T06:15:32.261Z,90
2017-04-13T06:16:33.035Z,89
2017-04-13T06:17:33.809Z,89
2017-04-13T06:18:34.586Z,88
2017-04-13T06:19:35.612Z,88
2017-04-13T06:20:36.391Z,89
2017-04-13T06:21:37.285Z,89
2017-04-13T06:22:38.071Z,88
2017-04-13T06:23:39.174Z,89
2017-04-13T06:24:40.200Z,89
2017-04-13T06:25:40.975Z,89
2017-04-13T06:26:41.779Z,89
2017-04-13T06:27:43.482Z,89
2017-04-13T06:28:44.257Z,88
2017-04-13T06:29:45.279Z,88
2017-04-13T06:30:46.059Z,88
2017-04-13T06:31:46.835Z,87
2017-04-13T06:32:47.612Z,87
2017-04-13T06:33:48.386Z,88
2017-04-13T06:34:49.408Z,87
2017-04-13T06:35:50.179Z,87
2017-04-13T06:36:50.955Z,87
2017-04-13T06:37:51.866Z,88
2017-04-13T06:38:52.667Z,87
2017-04-13T06:39:53.826Z,87
2017-04-13T06:40:54.965Z,87
2017-04-13T06:41:56.675Z,87
2017-04-13T06:42:57.457Z,87
2017-04-13T06:43:58.226Z,88
2017-04-13T06:44:59.248Z,87
2017-04-13T06:46:00.025Z,85
2017-04-13T06:47:00.797Z,86
2017-04-13T06:48:01.571Z,86
2017-04-13T06:49:02.348Z,87
2017-04-13T06:50:03.372Z,86
2017-04-13T06:51:04.149Z,86
2017-04-13T06:52:04.921Z,86
2017-04-13T06:53:05.699Z,86
2017-04-13T06:54:06.474Z,86
2017-04-13T06:55:07.498Z,86
2017-04-13T06:56:08.274Z,85
2017-04-13T06:57:09.050Z,86
2017-04-13T06:58:09.825Z,86
2017-04-13T06:59:10.602Z,85
2017-04-13T07:00:11.625Z,85
2017-04-13T07:01:12.401Z,85
2017-04-13T07:02:13.181Z,86
2017-04-13T07:03:13.953Z,86
2017-04-13T07:04:14.728Z,85
2017-04-13T07:05:15.752Z,86
2017-04-13T07:06:16.526Z,86
2017-04-13T07:07:17.298Z,86
2017-04-13T07:08:18.258Z,85
2017-04-13T07:09:19.033Z,85
2017-04-13T07:10:20.056Z,85
2017-04-13T07:11:20.833Z,86
2017-04-13T07:12:21.603Z,86
2017-04-13T07:13:22.379Z,86
2017-04-13T07:14:23.152Z,85
2017-04-13T07:15:24.176Z,85
2017-04-13T07:16:24.952Z,86
2017-04-13T07:17:25.726Z,85
2017-04-13T07:18:26.500Z,86
2017-04-13T07:19:27.278Z,86
2017-04-13T07:20:28.304Z,85
2017-04-13T07:21:29.079Z,85
2017-04-13T07:22:29.858Z,85
2017-04-13T07:23:30.633Z,86
2017-04-13T07:24:31.409Z,85
2017-04-13T07:25:32.429Z,85
2017-04-13T07:26:33.205Z,85
2017-04-13T07:27:33.979Z,85
2017-04-13T07:28:34.756Z,84
2017-04-13T07:29:35.528Z,85
2017-04-13T07:30:36.557Z,85
2017-04-13T07:31:37.327Z,84
2017-04-13T07:32:38.104Z,85
2017-04-13T07:33:38.880Z,84
2017-04-13T07:34:39.657Z,84
2017-04-13T07:35:40.678Z,84
2017-04-13T07:36:41.452Z,85
2017-04-13T07:37:42.228Z,85
2017-04-13T07:38:43.003Z,84
2017-04-13T07:39:43.778Z,84
2017-04-13T07:40:44.802Z,84
2017-04-13T07:41:45.580Z,85
2017-04-13T07:42:46.357Z,85
2017-04-13T07:43:47.134Z,84
2017-04-13T07:44:47.908Z,85
2017-04-13T07:45:48.931Z,84
2017-04-13T07:46:49.706Z,84
2017-04-13T07:47:50.479Z,84
2017-04-13T07:48:51.252Z,84
2017-04-13T07:49:52.025Z,84
2017-04-13T07:50:53.055Z,84
2017-04-13T07:51:53.827Z,83
2017-04-13T07:52:54.602Z,84
2017-04-13T07:53:55.374Z,83
2017-04-13T07:54:56.150Z,83
2017-04-13T07:55:57.176Z,84
2017-04-13T07:56:57.948Z,83
2017-04-13T07:57:58.724Z,83
2017-04-13T07:58:59.500Z,83
2017-04-13T08:00:00.275Z,83
2017-04-13T08:01:01.302Z,82
2017-04-13T08:02:02.076Z,82
2017-04-13T08:03:02.942Z,84
2017-04-13T08:04:03.718Z,82
2017-04-13T08:05:04.490Z,82
2017-04-13T08:06:05.518Z,81
2017-04-13T08:07:06.293Z,81
2017-04-13T08:08:07.070Z,81
2017-04-13T08:09:07.845Z,82
2017-04-13T08:10:08.619Z,82
2017-04-13T08:11:09.647Z,82
2017-04-13T08:12:10.421Z,82
2017-04-13T08:13:11.196Z,82
2017-04-13T08:14:11.971Z,81
2017-04-13T08:15:12.745Z,80
2017-04-13T08:16:13.775Z,80
2017-04-13T08:17:14.551Z,80
2017-04-13T08:18:15.329Z,80
2017-04-13T08:19:16.103Z,80
2017-04-13T08:20:16.879Z,81
2017-04-13T08:21:17.908Z,80
2017-04-13T08:22:18.685Z,81
2017-04-13T08:23:19.462Z,80
2017-04-13T08:24:20.240Z,80
2017-04-13T08:25:21.015Z,79
2017-04-13T08:26:22.045Z,79
2017-04-13T08:27:22.825Z,79
2017-04-13T08:28:23.599Z,79
2017-04-13T08:29:24.380Z,79
2017-04-13T08:30:25.151Z,79
2017-04-13T08:31:26.180Z,79
2017-04-13T08:32:26.954Z,79
2017-04-13T08:33:27.735Z,78
2017-04-13T08:34:28.516Z,78
2017-04-13T08:35:29.484Z,79
2017-04-13T08:36:30.510Z,79
2017-04-13T08:37:31.290Z,79
2017-04-13T08:38:32.062Z,79
2017-04-13T08:39:32.843Z,78
2017-04-13T08:40:33.675Z,78
2017-04-13T08:41:34.832Z,77
2017-04-13T08:42:35.614Z,77
2017-04-13T08:43:36.393Z,77
2017-04-13T08:44:37.172Z,76
2017-04-13T08:45:37.955Z,77
2017-04-13T08:46:38.980Z,77
2017-04-13T08:47:39.760Z,76
2017-04-13T08:48:40.539Z,75
2017-04-13T08:49:41.318Z,74
2017-04-13T08:50:42.098Z,74
2017-04-13T08:51:43.130Z,73
2017-04-13T08:52:43.913Z,72
2017-04-13T08:53:44.693Z,73
2017-04-13T08:54:45.475Z,73
2017-04-13T08:55:46.255Z,71
2017-04-13T08:56:47.289Z,71
2017-04-13T08:57:48.068Z,71
2017-04-13T08:58:48.978Z,72
2017-04-13T08:59:49.785Z,72
2017-04-13T09:00:50.564Z,73
2017-04-13T09:01:51.597Z,74
2017-04-13T09:02:52.376Z,73
2017-04-13T09:03:53.155Z,73
2017-04-13T09:04:53.937Z,73
2017-04-13T09:05:54.682Z,74
2017-04-13T09:06:55.714Z,73
2017-04-13T09:07:56.594Z,72
2017-04-13T09:08:57.397Z,70
2017-04-13T09:09:58.175Z,71
2017-04-13T09:10:58.956Z,71
2017-04-13T09:11:59.985Z,71
2017-04-13T09:13:00.765Z,72
2017-04-13T09:14:01.546Z,71
2017-04-13T09:15:02.326Z,72
2017-04-13T09:16:03.104Z,71
2017-04-13T09:17:04.133Z,71
2017-04-13T09:18:04.910Z,71
2017-04-13T09:19:05.693Z,71
2017-04-13T09:20:06.472Z,71
2017-04-13T09:21:07.252Z,71
2017-04-13T09:22:08.284Z,71
2017-04-13T09:23:09.059Z,71
2017-04-13T09:24:09.839Z,71
2017-04-13T09:25:10.618Z,72
2017-04-13T09:26:11.399Z,73
2017-04-13T09:27:12.432Z,71
2017-04-13T09:28:13.208Z,71
2017-04-13T09:29:13.994Z,71
2017-04-13T09:30:14.788Z,71
2017-04-13T09:31:15.666Z,72
2017-04-13T09:32:16.691Z,72
2017-04-13T09:33:17.571Z,71
2017-04-13T09:34:18.336Z,70
2017-04-13T09:35:19.114Z,71
2017-04-13T09:36:19.894Z,70
2017-04-13T09:37:20.919Z,71
2017-04-13T09:38:21.701Z,71
2017-04-13T09:39:22.477Z,71
2017-04-13T09:40:23.257Z,70
2017-04-13T09:41:24.043Z,70
2017-04-13T09:42:25.067Z,71
2017-04-13T09:43:25.842Z,71
2017-04-13T09:44:26.618Z,71
2017-04-13T09:45:27.396Z,71
2017-04-13T09:46:28.174Z,72
2017-04-13T09:47:29.202Z,71
2017-04-13T09:48:29.979Z,71
2017-04-13T09:49:30.759Z,69
2017-04-13T09:50:31.539Z,69
2017-04-13T09:51:32.314Z,70
2017-04-13T09:52:33.343Z,69
2017-04-13T09:53:34.123Z,68
2017-04-13T09:54:35.085Z,69
2017-04-13T09:55:35.862Z,69
2017-04-13T09:56:36.639Z,70
2017-04-13T09:57:37.663Z,69
2017-04-13T09:58:38.441Z,68
2017-04-13T09:59:39.219Z,67
2017-04-13T10:00:39.996Z,68
2017-04-13T10:01:40.773Z,67
2017-04-13T10:02:41.797Z,68
2017-04-13T10:03:42.575Z,68
2017-04-13T10:04:43.353Z,69
2017-04-13T10:05:44.133Z,69
2017-04-13T10:06:44.908Z,68
2017-04-13T10:07:45.933Z,68
2017-04-13T10:08:46.713Z,68
2017-04-13T10:09:47.489Z,68
2017-04-13T10:10:48.266Z,68
2017-04-13T10:11:49.044Z,68
2017-04-13T10:12:50.066Z,68
2017-04-13T10:13:50.844Z,69
2017-04-13T10:14:51.620Z,68
2017-04-13T10:15:52.400Z,69
2017-04-13T10:16:53.175Z,67
2017-04-13T10:17:54.203Z,67
2017-04-13T10:18:54.980Z,68
2017-04-13T10:19:55.760Z,68
2017-04-13T10:20:56.534Z,68
2017-04-13T10:21:57.314Z,68
2017-04-13T10:22:58.342Z,68
2017-04-13T10:23:59.118Z,69
2017-04-13T10:24:59.893Z,69
2017-04-13T10:26:00.670Z,69
2017-04-13T10:27:01.447Z,70
2017-04-13T10:28:02.475Z,71
2017-04-13T10:29:03.254Z,70
2017-04-13T10:30:04.030Z,70
2017-04-13T10:31:04.809Z,69
2017-04-13T10:32:05.589Z,69
2017-04-13T10:33:06.618Z,69
2017-04-13T10:34:07.397Z,70
2017-04-13T10:35:08.173Z,67
2017-04-13T10:36:08.953Z,68
2017-04-13T10:37:09.731Z,68
2017-04-13T10:38:10.759Z,69
2017-04-13T10:39:11.534Z,70
2017-04-13T10:40:12.497Z,72
2017-04-13T10:41:13.272Z,72
2017-04-13T10:42:14.048Z,73
2017-04-13T10:43:15.073Z,73
2017-04-13T10:44:15.851Z,73
2017-04-13T10:45:16.624Z,73
2017-04-13T10:46:17.400Z,73
2017-04-13T10:47:18.178Z,74
2017-04-13T10:48:19.205Z,74
2017-04-13T10:49:19.983Z,74
2017-04-13T10:50:20.755Z,75
2017-04-13T10:51:21.531Z,75
2017-04-13T10:52:22.303Z,74
2017-04-13T10:53:23.336Z,74
2017-04-13T10:54:24.110Z,74
2017-04-13T10:55:24.888Z,75
2017-04-13T10:56:25.666Z,74
2017-04-13T10:57:26.445Z,74
2017-04-13T10:58:27.471Z,72
2017-04-13T10:59:28.251Z,74
2017-04-13T11:00:29.030Z,74
2017-04-13T11:01:29.829Z,74
2017-04-13T11:02:30.617Z,74
2017-04-13T11:03:31.648Z,72
2017-04-13T11:04:32.424Z,73
2017-04-13T11:05:33.199Z,73
2017-04-13T11:06:33.975Z,73
2017-04-13T11:07:34.755Z,73
2017-04-13T11:08:35.783Z,74
2017-04-13T11:09:36.558Z,76
2017-04-13T11:10:37.337Z,77
2017-04-13T11:11:38.108Z,78
2017-04-13T11:12:38.883Z,79
2017-04-13T11:13:39.906Z,80
2017-04-13T11:14:40.683Z,78
2017-04-13T11:15:41.457Z,79
2017-04-13T11:16:42.228Z,80
2017-04-13T11:17:43.004Z,81
2017-04-13T11:18:44.026Z,78
2017-04-13T11:19:44.798Z,79
2017-04-13T11:20:45.576Z,78
2017-04-13T11:21:46.349Z,79
2017-04-13T11:22:47.121Z,79
2017-04-13T11:23:48.144Z,79
2017-04-13T11:24:48.918Z,79
2017-04-13T11:25:49.695Z,79
2017-04-13T11:26:50.466Z,80
2017-04-13T11:27:51.277Z,78
2017-04-13T11:28:53.220Z,77
2017-04-13T11:29:54.002Z,78
2017-04-13T11:30:54.767Z,78
2017-04-13T11:31:55.545Z,80
2017-04-13T11:32:56.317Z,79
2017-04-13T11:33:57.339Z,77
2017-04-13T11:34:58.115Z,76
2017-04-13T11:35:58.889Z,78
2017-04-13T11:36:59.662Z,76
2017-04-13T11:38:00.438Z,77
2017-04-13T11:39:01.459Z,78
2017-04-13T11:40:02.233Z,78
2017-04-13T11:41:03.003Z,76
2017-04-13T11:42:03.777Z,76
2017-04-13T11:43:04.550Z,74
2017-04-13T11:44:05.574Z,74
2017-04-13T11:45:06.347Z,76
2017-04-13T11:46:07.122Z,75
2017-04-13T11:47:07.892Z,75
2017-04-13T11:48:08.666Z,74
2017-04-13T11:49:09.690Z,75
2017-04-13T11:50:10.464Z,75
2017-04-13T11:51:11.235Z,75
2017-04-13T11:52:12.010Z,76
2017-04-13T11:53:12.785Z,75
2017-04-13T11:54:13.809Z,74
2017-04-13T11:55:14.589Z,75
2017-04-13T11:56:15.362Z,76
2017-04-13T11:57:16.140Z,75
2017-04-13T11:58:16.915Z,73
2017-04-13T11:59:17.943Z,72
2017-04-13T12:00:18.722Z,73
2017-04-13T12:01:19.501Z,73
2017-04-13T12:02:20.270Z,73
2017-04-13T12:03:21.046Z,74
2017-04-13T12:04:22.076Z,72
2017-04-13T12:05:22.854Z,73
2017-04-13T12:06:23.632Z,71
2017-04-13T12:07:24.405Z,72
2017-04-13T12:08:25.179Z,72
2017-04-13T12:09:26.208Z,72
2017-04-13T12:10:27.031Z,72
2017-04-13T12:11:28.725Z,72
2017-04-13T12:12:29.501Z,71
2017-04-13T12:13:30.280Z,69
2017-04-13T12:14:31.307Z,69
2017-04-13T12:15:32.089Z,69
2017-04-13T12:16:32.870Z,66
2017-04-13T12:17:33.652Z,66
2017-04-13T12:18:34.431Z,66
2017-04-13T12:19:35.467Z,67
2017-04-13T12:20:36.245Z,64
2017-04-13T12:21:37.029Z,65
2017-04-13T12:22:37.810Z,61
2017-04-13T12:23:38.591Z,60
2017-04-13T12:24:39.624Z,60
2017-04-13T12:25:40.407Z,60
2017-04-13T12:26:41.203Z,59
2017-04-13T12:27:41.987Z,60
2017-04-13T12:28:42.791Z,61
2017-04-13T12:29:43.834Z,61
2017-04-13T12:30:44.617Z,61
2017-04-13T12:31:45.592Z,61
2017-04-13T12:32:46.373Z,59
2017-04-13T12:33:47.162Z,59
2017-04-13T12:34:48.280Z,57
2017-04-13T12:35:49.105Z,58
2017-04-13T12:36:49.919Z,59
2017-04-13T12:37:50.702Z,61
2017-04-13T12:38:51.482Z,63
2017-04-13T12:39:52.510Z,64
2017-04-13T12:40:53.291Z,67
2017-04-13T12:41:54.071Z,66
2017-04-13T12:42:54.862Z,67
2017-04-13T12:43:55.634Z,65
2017-04-13T12:44:56.666Z,63
2017-04-13T12:45:57.478Z,63
2017-04-13T12:46:58.279Z,64
2017-04-13T12:47:59.057Z,64
2017-04-13T12:48:59.916Z,63
2017-04-13T12:50:00.945Z,63
2017-04-13T12:51:01.717Z,64
2017-04-13T12:52:02.497Z,64
2017-04-13T12:53:03.279Z,64
2017-04-13T12:54:04.055Z,64
2017-04-13T12:55:05.348Z,63
2017-04-13T12:56:06.160Z,64
2017-04-13T12:57:06.931Z,65
2017-04-13T12:58:07.748Z,63
2017-04-13T12:59:08.522Z,65
2017-04-13T13:00:09.549Z,64
2017-04-13T13:01:10.331Z,64
2017-04-13T13:02:11.189Z,63
2017-04-13T13:03:12.025Z,64
2017-04-13T13:04:13.044Z,64
2017-04-13T13:05:14.074Z,64
2017-04-13T13:06:14.855Z,63
2017-04-13T13:07:15.631Z,63
2017-04-13T13:08:16.411Z,63
2017-04-13T13:09:17.192Z,62
2017-04-13T13:10:18.225Z,62
2017-04-13T13:11:19.003Z,61
2017-04-13T13:12:19.787Z,61
2017-04-13T13:13:20.564Z,59
2017-04-13T13:14:21.354Z,58
2017-04-13T13:15:22.376Z,57
2017-04-13T13:16:23.158Z,54
2017-04-13T13:17:23.941Z,54
2017-04-13T13:18:24.726Z,54
2017-04-13T13:19:25.516Z,52
2017-04-13T13:20:26.548Z,52
2017-04-13T13:21:27.331Z,52
2017-04-13T13:22:28.113Z,53
2017-04-13T13:23:28.900Z,54
2017-04-13T13:24:29.683Z,54
2017-04-13T13:25:30.719Z,55
2017-04-13T13:26:31.504Z,54
2017-04-13T13:27:32.319Z,54
2017-04-13T13:28:33.102Z,54
2017-04-13T13:29:33.902Z,54
2017-04-13T13:30:34.950Z,53
2017-04-13T13:31:35.928Z,52
2017-04-13T13:32:36.711Z,51
2017-04-13T13:33:37.493Z,51
2017-04-13T13:34:38.281Z,51
2017-04-13T13:35:39.316Z,51
2017-04-13T13:36:40.102Z,50
2017-04-13T18:12:28.875Z,53
2017-04-13T18:13:29.666Z,54
2017-04-13T18:14:30.517Z,54
2017-04-13T18:15:31.302Z,55
2017-04-13T18:16:32.213Z,54
2017-04-13T18:17:33.285Z,55
2017-04-13T18:18:34.054Z,56
2017-04-13T18:19:34.827Z,56
2017-04-13T18:20:35.600Z,56
2017-04-13T18:21:36.372Z,56
2017-04-13T18:22:37.576Z,56
2017-04-13T18:23:38.345Z,56
2017-04-13T18:24:39.114Z,56
2017-04-13T18:25:39.888Z,56
2017-04-13T18:26:40.659Z,56
2017-04-13T18:27:41.680Z,56
2017-04-13T18:28:42.633Z,57
2017-04-13T18:29:43.404Z,57
2017-04-13T18:30:44.176Z,57
2017-04-13T18:31:44.944Z,57
2017-04-13T18:32:45.963Z,57
2017-04-13T18:33:46.733Z,57
2017-04-13T18:34:47.504Z,57
2017-04-13T18:35:48.289Z,57
2017-04-13T18:36:49.066Z,57
2017-04-13T18:37:50.084Z,57
2017-04-13T18:38:50.852Z,58
2017-04-13T18:39:51.620Z,57
2017-04-13T18:40:52.386Z,58
2017-04-13T18:41:53.158Z,58
2017-04-13T18:42:54.182Z,58
2017-04-13T18:43:54.949Z,58
2017-04-13T18:44:55.720Z,58
2017-04-13T18:45:56.491Z,58
2017-04-13T18:46:57.260Z,58
2017-04-13T18:47:58.284Z,59
2017-04-13T18:48:59.043Z,59
2017-04-13T18:49:59.834Z,58
2017-04-13T18:51:00.619Z,58
2017-04-13T18:52:01.393Z,59
2017-04-13T18:53:02.413Z,59
2017-04-13T18:54:03.186Z,59
2017-04-13T18:55:03.941Z,59
2017-04-13T18:56:04.713Z,59
2017-04-13T18:57:05.482Z,59
2017-04-13T18:58:06.503Z,59
2017-04-13T18:59:07.264Z,59
2017-04-13T19:00:08.058Z,60
2017-04-13T19:01:08.939Z,59
2017-04-13T19:02:09.703Z,60
2017-04-13T19:03:10.720Z,60